Buchanan Airport

Jump to: basic info | weather | comments

Related pages: nearby airports | nearby navaids | notams | map

Basic information (top)

Codes: UCN GLBU
Location: lon 5.167650, lat -9.283470, elev 41 ft / 12 m msl
Status: small_airport
Scheduled airline service: no
Links: Wikipedia Mobile

Weather (top)

Current conditions for Roberts International Airport 91nm (168km) NW (rec'd 2014/07/26 19:00Z):

GLRB 261900Z 00000KT 2500 RA BKN005 OVC011 FEW022 CB 24/23 Q1013 RMK CB-SE TEMPO 3000 RA

Airport forecast for Roberts International Airport 91nm (168km) NW (rec'd 2014/07/26 18:51Z):

TAF GLRB 261600Z 2618/2724 24010KT 7000 RA SCT004 BKN014 
      BECMG 2619/2621 20010KT 9000 BKN013 
      TEMPO 2622/2703 17006KT 6000 RA SCT004 BKN012 
      BECMG 2704/2706 20006KT 9000 BKN011

Latest comments (top)

No comments yet for Buchanan Airport

More... (top)

See also NOTAMs and nearby airports and navaids, or visit the Buchanan Airport page at the main OurAirports website..